首页
METAR-TAF:

METAR-TAF

机场 :

烏迪內, 意大利

纬度: 45-59N, 经度: 013-02E, 海拔: 51米

当前天气观测

该预报发布于48分钟前的03:55 UTC
风速3节,风向
温度 0°C
湿度 86%
气压 1022 hPa
能见度10公里或以上
1500米以下无云,无积雨云

METAR: LIPI 210355Z 01003KT CAVOK 00/M02 Q1022 RMK SKC VIS MIN 9999 WIND THR06 04004KT WIND THR24 03002KT BLU

时间: 05:43 (04:43 UTC)

预报

该预报发布于14小时和43分钟前的14:00 UTC
预报有效从20日的 15点(UTC)到 20日的 24点(UTC)
风速5节,风向北转东北
能见度10公里或以上
1500米以下无云,无积雨云
短暂存在
从 20日的 15点(UTC)到 20日的 19点(UTC)
风速8节,风向西南

TAF: LIPI 201400Z 2015/2024 02005KT CAVOK TEMPO 2015/2019 22008KT

超过4000个机场的气象观测和天气预报(METAR&TAF报告)。

可查询的气象台以黄色和红色小点在地图上表示。

将鼠标移到小点上方,可查看气象台名称。

然后点击查看天气观测和预报。

如需切换地图:点击带黑十字的绿色按钮放大地图;点击带横线的绿色按钮缩小地图;或者点击绿色箭头查看邻近地区的地图。


METAR-TAF: